createdAt,value
2022-11-30T00:01:02.831Z,0.0
2022-11-30T00:05:08.583Z,0.0
2022-11-30T00:10:08.440Z,1.0
2022-11-30T00:15:11.007Z,1.0
2022-11-30T00:20:07.740Z,1.2
2022-11-30T00:25:08.479Z,1.2
2022-11-30T00:30:08.194Z,1.1
2022-11-30T00:35:07.924Z,1.1
2022-11-30T00:40:08.975Z,1.4
2022-11-30T00:45:07.805Z,1.4
2022-11-30T00:50:08.583Z,0.0
2022-11-30T00:55:08.276Z,0.0
2022-11-30T01:00:08.022Z,0.0
2022-11-30T01:05:08.077Z,0.0
2022-11-30T01:10:07.806Z,0.0
2022-11-30T01:15:08.522Z,0.0
2022-11-30T01:20:08.236Z,0.0
2022-11-30T01:25:08.030Z,0.0
2022-11-30T01:30:07.807Z,0.0
2022-11-30T01:35:08.572Z,0.0
2022-11-30T01:40:08.264Z,0.0
2022-11-30T01:45:07.954Z,0.0
2022-11-30T01:50:07.680Z,0.0
2022-11-30T01:55:08.395Z,0.0
2022-11-30T02:00:08.080Z,0.0
2022-11-30T02:05:07.770Z,0.0
2022-11-30T02:10:08.500Z,0.0
2022-11-30T02:15:08.235Z,0.0
2022-11-30T02:20:07.985Z,0.0
2022-11-30T02:25:07.709Z,0.0
2022-11-30T02:30:08.456Z,0.0
2022-11-30T02:35:08.144Z,0.0
2022-11-30T02:40:07.824Z,0.0
2022-11-30T02:45:08.543Z,0.0
2022-11-30T02:50:08.281Z,0.0
2022-11-30T02:55:08.019Z,0.0
2022-11-30T03:00:07.767Z,0.0
2022-11-30T03:05:08.505Z,0.0
2022-11-30T03:10:08.219Z,0.0
2022-11-30T03:15:07.899Z,0.0
2022-11-30T03:20:08.617Z,0.0
2022-11-30T03:25:08.323Z,0.0
2022-11-30T03:30:08.074Z,0.0
2022-11-30T03:35:07.823Z,0.0
2022-11-30T03:40:08.536Z,0.0
2022-11-30T03:45:08.235Z,0.0
2022-11-30T03:50:07.938Z,0.0
2022-11-30T03:55:08.674Z,0.0
2022-11-30T04:00:08.369Z,0.0
2022-11-30T04:05:08.123Z,0.0
2022-11-30T04:10:08.821Z,0.0
2022-11-30T04:15:08.636Z,0.0
2022-11-30T04:20:08.373Z,0.0
2022-11-30T04:25:08.088Z,0.0
2022-11-30T04:30:07.795Z,0.0
2022-11-30T04:35:08.514Z,0.0
2022-11-30T04:40:08.213Z,0.0
2022-11-30T04:45:07.933Z,0.0
2022-11-30T04:50:08.696Z,0.0
2022-11-30T04:55:08.406Z,0.0
2022-11-30T05:00:08.142Z,0.0
2022-11-30T05:05:02.120Z,0.0
2022-11-30T05:10:03.777Z,0.0
2022-11-30T05:15:02.686Z,0.0
2022-11-30T05:20:02.635Z,0.0
2022-11-30T05:25:02.460Z,0.0
2022-11-30T05:30:02.250Z,0.0
2022-11-30T05:35:02.093Z,0.0
2022-11-30T05:40:01.939Z,0.0
2022-11-30T05:45:01.753Z,0.0
2022-11-30T05:50:02.602Z,0.0
2022-11-30T05:55:02.417Z,0.0
2022-11-30T06:00:02.262Z,0.0
2022-11-30T06:05:02.098Z,0.0
2022-11-30T06:10:01.909Z,0.0
2022-11-30T06:15:02.772Z,0.0
2022-11-30T06:20:02.617Z,0.0
2022-11-30T06:25:02.425Z,0.0
2022-11-30T06:30:02.396Z,0.0
2022-11-30T06:35:02.183Z,0.0
2022-11-30T06:40:07.070Z,0.0
2022-11-30T06:45:02.458Z,0.0
2022-11-30T06:50:02.280Z,0.0
2022-11-30T06:55:02.103Z,0.0
2022-11-30T07:00:01.946Z,0.0
2022-11-30T07:05:01.765Z,0.0
2022-11-30T07:10:02.851Z,0.0
2022-11-30T07:15:02.650Z,0.0
2022-11-30T07:20:02.495Z,0.0
2022-11-30T07:25:02.311Z,0.0
2022-11-30T07:30:02.145Z,0.0
2022-11-30T07:35:02.054Z,0.0
2022-11-30T07:40:01.990Z,0.0
2022-11-30T07:45:01.925Z,0.0
2022-11-30T07:50:03.204Z,0.0
2022-11-30T07:55:02.102Z,0.0
2022-11-30T08:00:02.139Z,0.0
2022-11-30T08:05:02.099Z,0.0
2022-11-30T08:10:02.018Z,0.0
2022-11-30T08:15:20.959Z,0.0
2022-11-30T08:20:02.295Z,0.0
2022-11-30T08:25:02.225Z,0.0
2022-11-30T08:30:02.042Z,0.0
2022-11-30T08:35:01.857Z,0.0
2022-11-30T08:40:02.728Z,0.0
2022-11-30T08:45:02.965Z,0.0
2022-11-30T08:50:02.051Z,0.0
2022-11-30T08:55:01.980Z,1.0
2022-11-30T09:00:01.929Z,1.0
2022-11-30T09:05:02.877Z,0.0
2022-11-30T09:10:02.709Z,0.0
2022-11-30T09:15:02.711Z,0.0
2022-11-30T09:20:02.690Z,0.0
2022-11-30T09:25:02.492Z,0.0
2022-11-30T09:30:02.356Z,0.0
2022-11-30T09:35:02.275Z,0.0
2022-11-30T09:40:02.092Z,0.0
2022-11-30T09:45:01.896Z,0.0
2022-11-30T09:50:02.799Z,0.0
2022-11-30T09:55:02.718Z,1.0
2022-11-30T10:00:02.599Z,1.0
2022-11-30T10:05:02.359Z,0.0
2022-11-30T10:10:30.838Z,0.0
2022-11-30T10:15:12.385Z,0.0
2022-11-30T10:20:02.321Z,0.0
2022-11-30T10:25:05.927Z,1.1
2022-11-30T10:30:02.614Z,1.1
2022-11-30T10:35:02.562Z,1.4
2022-11-30T10:40:02.471Z,1.2
2022-11-30T10:45:02.389Z,1.2
2022-11-30T10:50:02.631Z,1.2
2022-11-30T10:55:04.787Z,1.2
2022-11-30T11:00:02.073Z,1.3
2022-11-30T11:05:01.915Z,1.3
2022-11-30T11:10:02.755Z,1.1
2022-11-30T11:15:08.254Z,1.1
2022-11-30T11:20:02.164Z,1.5
2022-11-30T11:25:11.927Z,1.5
2022-11-30T11:30:02.683Z,1.6
2022-11-30T11:35:02.569Z,1.6
2022-11-30T11:40:02.479Z,1.0
2022-11-30T11:45:02.599Z,1.0
2022-11-30T11:50:02.611Z,0.0
2022-11-30T11:55:02.460Z,0.0
2022-11-30T12:00:02.274Z,0.0
2022-11-30T12:05:02.119Z,0.0
2022-11-30T12:10:35.687Z,1.7
2022-11-30T12:15:02.600Z,1.7
2022-11-30T12:20:02.446Z,0.0
2022-11-30T12:25:05.893Z,0.0
2022-11-30T12:30:01.987Z,0.0
2022-11-30T12:35:01.799Z,0.0
2022-11-30T12:40:02.670Z,1.0
2022-11-30T12:45:02.485Z,1.0
2022-11-30T12:50:02.325Z,0.0
2022-11-30T12:55:02.331Z,0.0
2022-11-30T13:00:02.280Z,0.0
2022-11-30T13:05:07.965Z,0.0
2022-11-30T13:10:01.912Z,0.0
2022-11-30T13:15:02.906Z,0.0
2022-11-30T13:20:02.848Z,0.0
2022-11-30T13:25:02.720Z,0.0
2022-11-30T13:30:02.486Z,0.0
2022-11-30T13:35:02.305Z,0.0
2022-11-30T13:40:02.099Z,0.0
2022-11-30T13:45:01.879Z,0.0
2022-11-30T13:50:07.065Z,1.5
2022-11-30T13:55:01.941Z,1.5
2022-11-30T14:00:01.787Z,1.0
2022-11-30T14:05:02.727Z,1.0
2022-11-30T14:10:02.660Z,0.0
2022-11-30T14:15:02.488Z,0.0
2022-11-30T14:20:02.372Z,1.5
2022-11-30T14:25:02.307Z,1.5
2022-11-30T14:30:02.352Z,0.0
2022-11-30T14:35:02.345Z,0.0
2022-11-30T14:40:02.307Z,0.0
2022-11-30T14:45:02.265Z,0.0
2022-11-30T14:50:02.239Z,0.0
2022-11-30T14:55:02.102Z,0.0
2022-11-30T15:00:02.140Z,0.0
2022-11-30T15:05:01.984Z,0.0
2022-11-30T15:10:01.930Z,0.0
2022-11-30T15:15:01.774Z,0.0
2022-11-30T15:20:02.673Z,0.0
2022-11-30T15:25:02.505Z,0.0
2022-11-30T15:30:02.474Z,0.0
2022-11-30T15:35:02.342Z,0.0
2022-11-30T15:40:02.285Z,0.0
2022-11-30T15:45:02.384Z,0.0
2022-11-30T15:50:02.286Z,1.2
2022-11-30T15:55:02.213Z,0.0
2022-11-30T16:00:02.148Z,0.0
2022-11-30T16:05:13.763Z,0.0
2022-11-30T16:10:12.327Z,0.0
2022-11-30T16:15:02.219Z,0.0
2022-11-30T16:20:02.067Z,0.0
2022-11-30T16:25:01.935Z,0.0
2022-11-30T16:30:01.740Z,0.0
2022-11-30T16:35:02.605Z,0.0
2022-11-30T16:40:02.430Z,0.0
2022-11-30T16:45:02.456Z,0.0
2022-11-30T16:50:02.275Z,0.0
2022-11-30T16:55:02.129Z,0.0
2022-11-30T17:00:01.946Z,1.0
2022-11-30T17:05:01.808Z,0.0
2022-11-30T17:10:02.604Z,0.0
2022-11-30T17:15:02.424Z,0.0
2022-11-30T17:20:02.322Z,0.0
2022-11-30T17:25:02.214Z,0.0
2022-11-30T17:30:02.029Z,0.0
2022-11-30T17:35:01.938Z,0.0
2022-11-30T17:40:01.793Z,0.0
2022-11-30T17:45:02.643Z,0.0
2022-11-30T17:50:02.515Z,0.0
2022-11-30T17:55:02.285Z,0.0
2022-11-30T18:00:02.178Z,0.0
2022-11-30T18:05:01.985Z,0.0
2022-11-30T18:10:01.779Z,0.0
2022-11-30T18:15:02.699Z,0.0
2022-11-30T18:20:02.650Z,0.0
2022-11-30T18:25:02.609Z,0.0
2022-11-30T18:30:07.354Z,0.0
2022-11-30T18:35:02.886Z,0.0
2022-11-30T18:40:02.785Z,0.0
2022-11-30T18:45:02.723Z,0.0
2022-11-30T18:50:02.677Z,0.0
2022-11-30T18:55:02.548Z,0.0
2022-11-30T19:00:02.399Z,0.0
2022-11-30T19:05:02.282Z,0.0
2022-11-30T19:10:02.105Z,0.0
2022-11-30T19:15:01.925Z,0.0
2022-11-30T19:20:02.816Z,0.0
2022-11-30T19:25:02.677Z,0.0
2022-11-30T19:30:02.707Z,1.2
2022-11-30T19:35:02.605Z,1.2
2022-11-30T19:40:02.594Z,0.0
2022-11-30T19:45:02.578Z,0.0
2022-11-30T19:50:02.470Z,0.0
2022-11-30T19:55:02.254Z,0.0
2022-11-30T20:00:02.173Z,0.0
2022-11-30T20:05:02.113Z,0.0
2022-11-30T20:10:01.992Z,0.0
2022-11-30T20:15:01.958Z,0.0
2022-11-30T20:20:01.957Z,1.2
2022-11-30T20:25:01.798Z,0.0
2022-11-30T20:30:02.595Z,0.0
2022-11-30T20:35:02.522Z,0.0
2022-11-30T20:40:02.514Z,0.0
2022-11-30T20:45:02.418Z,0.0
2022-11-30T20:50:02.271Z,0.0
2022-11-30T20:55:02.040Z,0.0
2022-11-30T21:00:02.037Z,0.0
2022-11-30T21:05:01.926Z,0.0
2022-11-30T21:10:02.927Z,0.0
2022-11-30T21:15:02.909Z,1.2
2022-11-30T21:20:02.809Z,0.0
2022-11-30T21:25:02.785Z,0.0
2022-11-30T21:30:02.816Z,0.0
2022-11-30T21:35:02.779Z,0.0
2022-11-30T21:40:02.611Z,0.0
2022-11-30T21:45:02.536Z,0.0
2022-11-30T21:50:02.356Z,1.1
2022-11-30T21:55:02.375Z,1.1
2022-11-30T22:00:02.263Z,0.0
2022-11-30T22:05:14.982Z,0.0
2022-11-30T22:10:07.664Z,0.0
2022-11-30T22:15:08.399Z,0.0
2022-11-30T22:20:08.132Z,0.0
2022-11-30T22:25:07.821Z,0.0
2022-11-30T22:30:08.633Z,0.0
2022-11-30T22:35:08.404Z,0.0
2022-11-30T22:40:08.136Z,0.0
2022-11-30T22:45:07.872Z,0.0
2022-11-30T22:50:08.659Z,0.0
2022-11-30T22:55:08.596Z,0.0
2022-11-30T23:00:08.394Z,0.0
2022-11-30T23:05:08.216Z,0.0
2022-11-30T23:10:08.029Z,0.0
2022-11-30T23:15:07.904Z,0.0
2022-11-30T23:20:08.640Z,1.0
2022-11-30T23:25:08.333Z,1.0
2022-11-30T23:30:08.055Z,2.2
2022-11-30T23:35:07.778Z,2.2
2022-11-30T23:40:08.506Z,0.0
2022-11-30T23:45:08.220Z,0.0
2022-11-30T23:50:07.949Z,0.0
2022-11-30T23:55:07.661Z,0.0
